createdAt,value
2023-02-18T00:01:16.501Z,12.70
2023-02-18T00:03:44.683Z,12.70
2023-02-18T00:06:14.946Z,12.70
2023-02-18T00:08:43.697Z,12.70
2023-02-18T00:11:11.856Z,12.70
2023-02-18T00:13:40.297Z,12.70
2023-02-18T00:16:14.592Z,12.70
2023-02-18T00:18:42.557Z,12.70
2023-02-18T00:21:10.522Z,12.70
2023-02-18T00:23:38.395Z,12.70
2023-02-18T00:26:08.914Z,12.70
2023-02-18T00:28:37.146Z,12.70
2023-02-18T00:31:09.793Z,12.70
2023-02-18T00:33:38.051Z,12.70
2023-02-18T00:36:08.675Z,12.70
2023-02-18T00:38:36.891Z,12.70
2023-02-18T00:41:05.756Z,12.70
2023-02-18T00:43:33.677Z,12.70
2023-02-18T00:46:02.193Z,12.70
2023-02-18T00:48:31.621Z,12.70
2023-02-18T00:51:00.780Z,12.70
2023-02-18T00:53:28.778Z,12.60
2023-02-18T00:55:56.987Z,12.70
2023-02-18T00:58:25.200Z,12.60
2023-02-18T01:00:53.211Z,12.60
2023-02-18T01:03:22.512Z,12.60
2023-02-18T01:05:52.474Z,12.60
2023-02-18T01:08:22.011Z,12.60
2023-02-18T01:10:51.441Z,12.60
2023-02-18T01:13:19.656Z,12.60
2023-02-18T01:15:47.643Z,12.60
2023-02-18T01:18:15.884Z,12.70
2023-02-18T01:20:45.161Z,12.70
2023-02-18T01:23:15.254Z,12.60
2023-02-18T01:25:43.488Z,12.70
2023-02-18T01:28:14.137Z,12.70
2023-02-18T01:30:42.583Z,12.70
2023-02-18T01:33:10.759Z,12.70
2023-02-18T01:35:40.131Z,12.70
2023-02-18T01:38:08.210Z,12.70
2023-02-18T01:40:37.985Z,12.70
2023-02-18T01:43:05.922Z,12.70
2023-02-18T01:46:04.602Z,12.70
2023-02-18T01:48:39.608Z,12.70
2023-02-18T01:51:12.874Z,12.70
2023-02-18T01:53:45.919Z,12.70
2023-02-18T01:56:21.017Z,12.70
2023-02-18T01:58:49.762Z,12.70
2023-02-18T02:01:17.824Z,12.70
2023-02-18T02:03:45.721Z,12.60
2023-02-18T02:06:23.062Z,12.70
2023-02-18T02:08:55.350Z,12.70
2023-02-18T02:11:42.760Z,12.70
2023-02-18T02:14:23.165Z,12.70
2023-02-18T02:16:58.573Z,12.70
2023-02-18T02:20:08.269Z,12.70
2023-02-18T02:22:56.828Z,12.70
2023-02-18T02:25:45.296Z,12.70
2023-02-18T02:28:49.884Z,12.70
2023-02-18T02:31:38.761Z,12.70
2023-02-18T02:34:51.834Z,12.70
2023-02-18T02:37:27.002Z,12.70
2023-02-18T02:40:04.531Z,12.70
2023-02-18T02:42:47.779Z,12.70
2023-02-18T02:45:22.954Z,12.70
2023-02-18T02:47:56.529Z,12.70
2023-02-18T02:50:32.472Z,12.70
2023-02-18T02:53:07.099Z,12.60
2023-02-18T02:55:36.216Z,12.60
2023-02-18T02:58:04.146Z,12.60
2023-02-18T03:00:44.715Z,12.60
2023-02-18T03:03:39.231Z,12.60
2023-02-18T03:06:29.824Z,12.60
2023-02-18T03:09:03.648Z,12.60
2023-02-18T03:11:40.082Z,12.60
2023-02-18T03:14:12.919Z,12.60
2023-02-18T03:16:48.079Z,12.60
2023-02-18T03:19:23.823Z,12.60
2023-02-18T03:21:58.373Z,12.60
2023-02-18T03:24:31.501Z,12.60
2023-02-18T03:27:01.986Z,12.60
2023-02-18T03:29:30.940Z,12.60
2023-02-18T03:32:04.050Z,12.50
2023-02-18T03:34:37.415Z,12.60
2023-02-18T03:37:07.602Z,12.60
2023-02-18T03:39:37.587Z,12.60
2023-02-18T03:42:06.005Z,12.50
2023-02-18T03:44:33.830Z,12.50
2023-02-18T03:47:01.901Z,12.50
2023-02-18T03:49:29.847Z,12.50
2023-02-18T03:51:57.707Z,12.50
2023-02-18T03:54:26.977Z,12.50
2023-02-18T03:56:54.885Z,12.50
2023-02-18T03:59:22.794Z,12.40
2023-02-18T04:01:50.676Z,12.40
2023-02-18T04:04:18.637Z,12.40
2023-02-18T04:06:46.634Z,12.40
2023-02-18T04:09:14.657Z,12.40
2023-02-18T04:11:43.880Z,12.40
2023-02-18T04:14:15.094Z,12.40
2023-02-18T04:16:43.326Z,12.40
2023-02-18T04:19:11.258Z,12.40
2023-02-18T04:21:39.131Z,12.40
2023-02-18T04:24:07.307Z,12.40
2023-02-18T04:26:35.275Z,12.40
2023-02-18T04:29:04.555Z,12.40
2023-02-18T04:31:32.565Z,12.40
2023-02-18T04:34:00.480Z,12.40
2023-02-18T04:36:28.518Z,12.40
2023-02-18T04:38:56.469Z,12.40
2023-02-18T04:41:24.703Z,12.30
2023-02-18T04:43:53.262Z,12.30
2023-02-18T04:46:22.509Z,12.30
2023-02-18T04:48:50.526Z,12.30
2023-02-18T04:51:18.483Z,12.30
2023-02-18T04:53:46.456Z,12.30
2023-02-18T04:56:14.399Z,12.30
2023-02-18T04:58:42.274Z,12.30
2023-02-18T05:01:10.214Z,12.20
2023-02-18T05:03:39.535Z,12.20
2023-02-18T05:06:08.307Z,12.20
2023-02-18T05:08:36.395Z,12.20
2023-02-18T05:11:08.055Z,12.20
2023-02-18T05:13:36.140Z,12.20
2023-02-18T05:16:04.140Z,12.20
2023-02-18T05:18:32.089Z,12.20
2023-02-18T05:21:01.391Z,12.20
2023-02-18T05:23:29.332Z,12.20
2023-02-18T05:25:57.224Z,12.20
2023-02-18T05:28:25.509Z,12.20
2023-02-18T05:30:53.508Z,12.10
2023-02-18T05:33:21.479Z,12.20
2023-02-18T05:35:50.080Z,12.20
2023-02-18T05:38:19.616Z,12.20
2023-02-18T05:40:47.650Z,12.10
2023-02-18T05:43:15.531Z,12.20
2023-02-18T05:45:43.580Z,12.20
2023-02-18T05:48:11.865Z,12.20
2023-02-18T05:50:39.904Z,12.20
2023-02-18T05:53:07.818Z,12.20
2023-02-18T05:55:39.076Z,12.20
2023-02-18T05:58:07.399Z,12.20
2023-02-18T06:00:35.594Z,12.20
2023-02-18T06:03:03.643Z,12.20
2023-02-18T06:05:31.618Z,12.10
2023-02-18T06:07:59.566Z,12.10
2023-02-18T06:10:27.637Z,12.10
2023-02-18T06:12:56.933Z,12.10
2023-02-18T06:15:24.852Z,12.10
2023-02-18T06:17:52.874Z,12.10
2023-02-18T06:20:20.886Z,12.10
2023-02-18T06:22:48.815Z,12.10
2023-02-18T06:25:16.921Z,12.10
2023-02-18T06:27:44.880Z,12.10
2023-02-18T06:30:15.434Z,12.10
2023-02-18T06:32:43.437Z,12.00
2023-02-18T06:35:11.413Z,12.10
2023-02-18T06:37:39.351Z,12.00
2023-02-18T06:40:09.060Z,12.10
2023-02-18T06:42:36.960Z,12.00
2023-02-18T06:45:06.645Z,12.10
2023-02-18T06:47:36.274Z,12.10
2023-02-18T06:50:04.894Z,12.10
2023-02-18T06:52:33.466Z,12.10
2023-02-18T06:55:01.482Z,12.10
2023-02-18T06:57:29.357Z,12.10
2023-02-18T06:59:57.252Z,12.20
2023-02-18T07:02:25.282Z,12.20
2023-02-18T07:04:54.962Z,12.20
2023-02-18T07:07:22.806Z,12.20
2023-02-18T07:09:50.974Z,12.20
2023-02-18T07:12:18.875Z,12.20
2023-02-18T07:14:46.803Z,12.20
2023-02-18T07:17:14.894Z,12.20
2023-02-18T07:19:42.819Z,12.20
2023-02-18T07:22:12.106Z,12.20
2023-02-18T07:24:40.244Z,12.30
2023-02-18T07:27:08.213Z,12.30
2023-02-18T07:29:36.850Z,12.20
2023-02-18T07:32:05.102Z,12.30
2023-02-18T07:34:32.994Z,12.20
2023-02-18T07:37:00.872Z,12.30
2023-02-18T07:39:30.069Z,12.30
2023-02-18T07:41:58.006Z,12.30
2023-02-18T07:44:27.654Z,12.30
2023-02-18T07:46:55.588Z,12.30
2023-02-18T07:49:23.701Z,12.40
2023-02-18T07:51:52.143Z,12.40
2023-02-18T07:54:20.324Z,12.40
2023-02-18T07:56:49.593Z,12.40
2023-02-18T07:59:17.524Z,12.50
2023-02-18T08:01:45.559Z,12.40
2023-02-18T08:04:15.267Z,12.50
2023-02-18T08:06:49.750Z,12.50
2023-02-18T08:09:18.826Z,12.50
2023-02-18T08:11:59.378Z,12.60
2023-02-18T08:14:28.098Z,12.60
2023-02-18T08:17:00.885Z,12.70
2023-02-18T08:19:29.028Z,12.60
2023-02-18T08:21:56.959Z,12.70
2023-02-18T08:24:26.753Z,12.70
2023-02-18T08:27:00.690Z,12.70
2023-02-18T08:29:29.516Z,12.70
2023-02-18T08:31:58.897Z,12.80
2023-02-18T08:34:27.004Z,12.80
2023-02-18T08:36:55.038Z,12.90
2023-02-18T08:39:23.007Z,13.00
2023-02-18T08:41:50.945Z,13.00
2023-02-18T08:44:20.245Z,13.20
2023-02-18T08:46:48.878Z,13.40
2023-02-18T08:49:17.680Z,13.50
2023-02-18T08:51:45.925Z,13.70
2023-02-18T08:54:13.816Z,13.80
2023-02-18T08:56:41.826Z,13.80
2023-02-18T08:59:09.734Z,14.00
2023-02-18T09:01:39.134Z,14.10
2023-02-18T09:04:07.080Z,14.20
2023-02-18T09:06:38.558Z,14.30
2023-02-18T09:09:07.094Z,14.30
2023-02-18T09:11:35.331Z,14.40
2023-02-18T09:14:03.980Z,14.50
2023-02-18T09:16:32.007Z,14.50
2023-02-18T09:19:01.333Z,14.50
2023-02-18T09:21:29.676Z,14.40
2023-02-18T09:23:57.550Z,14.50
2023-02-18T09:26:26.336Z,14.60
2023-02-18T09:28:55.839Z,14.70
2023-02-18T09:31:25.785Z,14.80
2023-02-18T09:33:57.051Z,15.00
2023-02-18T09:36:26.612Z,15.30
2023-02-18T09:38:54.684Z,15.50
2023-02-18T09:41:33.375Z,15.70
2023-02-18T09:44:04.099Z,16.10
2023-02-18T09:46:35.541Z,16.50
2023-02-18T09:49:05.243Z,16.70
2023-02-18T09:51:34.532Z,16.90
2023-02-18T09:54:02.541Z,17.90
2023-02-18T09:56:33.736Z,18.80
2023-02-18T09:59:06.428Z,19.40
2023-02-18T10:01:38.055Z,19.40
2023-02-18T10:04:12.956Z,19.10
2023-02-18T10:06:42.839Z,18.80
2023-02-18T10:09:19.855Z,18.40
2023-02-18T10:11:51.337Z,18.00
2023-02-18T10:14:19.834Z,17.70
2023-02-18T10:16:50.552Z,17.60
2023-02-18T10:19:25.532Z,17.30
2023-02-18T10:21:56.042Z,17.10
2023-02-18T10:24:30.549Z,16.90
2023-02-18T10:26:59.617Z,16.70
2023-02-18T10:29:29.296Z,16.40
2023-02-18T10:32:00.694Z,16.20
2023-02-18T10:34:41.528Z,16.00
2023-02-18T10:37:23.016Z,15.90
2023-02-18T10:40:01.126Z,15.80
2023-02-18T10:42:39.990Z,15.70
2023-02-18T10:45:19.261Z,15.70
2023-02-18T10:47:59.951Z,15.70
2023-02-18T10:50:31.545Z,15.60
2023-02-18T10:53:09.171Z,15.60
2023-02-18T10:55:39.611Z,15.50
2023-02-18T10:58:27.159Z,15.40
2023-02-18T11:00:55.395Z,15.50
2023-02-18T11:03:24.664Z,15.50
2023-02-18T11:05:56.484Z,15.50
2023-02-18T11:08:27.881Z,15.70
2023-02-18T11:10:57.218Z,15.90
2023-02-18T11:13:29.354Z,16.20
2023-02-18T11:16:01.022Z,16.20
2023-02-18T11:18:37.263Z,16.20
2023-02-18T11:21:08.364Z,16.20
2023-02-18T11:23:48.650Z,16.40
2023-02-18T11:26:18.332Z,16.50
2023-02-18T11:28:48.002Z,16.40
2023-02-18T11:31:23.807Z,16.30
2023-02-18T11:33:54.435Z,16.20
2023-02-18T11:36:27.024Z,16.10
2023-02-18T11:38:58.407Z,16.10
2023-02-18T11:41:34.852Z,16.00
2023-02-18T11:44:04.224Z,15.90
2023-02-18T11:46:32.257Z,15.80
2023-02-18T11:49:22.190Z,15.80
2023-02-18T11:51:51.533Z,15.90
2023-02-18T11:54:27.356Z,16.00
2023-02-18T11:57:02.315Z,16.10
2023-02-18T11:59:34.629Z,16.10
2023-02-18T12:02:12.701Z,16.00
2023-02-18T12:04:47.782Z,16.10
2023-02-18T12:07:21.666Z,16.00
2023-02-18T12:09:54.835Z,15.90
2023-02-18T12:12:29.141Z,15.90
2023-02-18T12:14:58.390Z,15.90
2023-02-18T12:17:53.630Z,16.00
2023-02-18T12:20:39.124Z,16.10
2023-02-18T12:23:16.404Z,16.20
2023-02-18T12:25:53.775Z,16.40
2023-02-18T12:28:36.183Z,16.70
2023-02-18T12:31:22.857Z,16.70
2023-02-18T12:34:02.763Z,16.70
2023-02-18T12:36:39.915Z,16.80
2023-02-18T12:39:15.727Z,16.80
2023-02-18T12:41:56.171Z,16.90
2023-02-18T12:44:45.191Z,17.00
2023-02-18T12:47:37.898Z,17.60
2023-02-18T12:50:37.114Z,17.50
2023-02-18T12:53:24.848Z,17.20
2023-02-18T12:56:04.163Z,17.10
2023-02-18T12:58:45.529Z,16.80
2023-02-18T13:01:35.243Z,16.50
2023-02-18T13:04:26.810Z,16.50
2023-02-18T13:07:17.887Z,16.40
2023-02-18T13:09:58.904Z,16.30
2023-02-18T13:12:31.688Z,16.20
2023-02-18T13:15:05.927Z,16.10
2023-02-18T13:17:37.834Z,16.00
2023-02-18T13:20:08.540Z,15.90
2023-02-18T13:22:37.210Z,15.90
2023-02-18T13:25:05.410Z,15.80
2023-02-18T13:27:39.338Z,15.70
2023-02-18T13:30:24.779Z,15.60
2023-02-18T13:33:03.000Z,15.50
2023-02-18T13:35:36.370Z,15.40
2023-02-18T13:38:34.794Z,15.30
2023-02-18T13:41:03.763Z,15.30
2023-02-18T13:43:34.106Z,15.20
2023-02-18T13:46:11.024Z,15.30
2023-02-18T13:48:50.255Z,15.30
2023-02-18T13:51:30.375Z,15.30
2023-02-18T13:54:04.849Z,15.40
2023-02-18T13:56:34.983Z,15.40
2023-02-18T13:59:09.413Z,15.40
2023-02-18T14:01:44.907Z,15.50
2023-02-18T14:04:52.235Z,15.70
2023-02-18T14:07:45.324Z,16.10
2023-02-18T14:10:39.537Z,16.60
2023-02-18T14:13:26.802Z,17.00
2023-02-18T14:15:59.410Z,17.50
2023-02-18T14:18:36.033Z,17.70
2023-02-18T14:21:23.033Z,17.80
2023-02-18T14:24:04.117Z,18.00
2023-02-18T14:26:38.629Z,18.10
2023-02-18T14:29:11.899Z,18.20
2023-02-18T14:31:58.265Z,18.10
2023-02-18T14:34:59.410Z,18.10
2023-02-18T14:37:49.434Z,18.00
2023-02-18T14:40:42.638Z,18.00
2023-02-18T14:43:23.146Z,18.00
2023-02-18T14:46:16.640Z,18.00
2023-02-18T14:48:58.514Z,18.00
2023-02-18T14:51:28.193Z,18.00
2023-02-18T14:53:57.653Z,18.00
2023-02-18T14:56:25.861Z,18.00
2023-02-18T14:58:57.760Z,17.90
2023-02-18T15:01:29.620Z,17.80
2023-02-18T15:03:58.049Z,17.60
2023-02-18T15:06:30.437Z,17.30
2023-02-18T15:09:00.142Z,17.10
2023-02-18T15:11:37.611Z,16.90
2023-02-18T15:14:11.795Z,16.80
2023-02-18T15:16:40.406Z,16.60
2023-02-18T15:19:14.062Z,16.40
2023-02-18T15:21:45.050Z,16.30
2023-02-18T15:24:23.195Z,16.20
2023-02-18T15:26:52.097Z,16.20
2023-02-18T15:29:23.010Z,16.10
2023-02-18T15:31:51.509Z,16.00
2023-02-18T15:34:36.657Z,15.90
2023-02-18T15:37:06.431Z,15.80
2023-02-18T15:39:38.585Z,15.80
2023-02-18T15:42:10.584Z,15.60
2023-02-18T15:44:38.956Z,15.60
2023-02-18T15:47:09.920Z,15.50
2023-02-18T15:49:40.756Z,15.40
2023-02-18T15:52:09.947Z,15.40
2023-02-18T15:54:42.148Z,15.30
2023-02-18T15:57:17.056Z,15.20
2023-02-18T15:59:48.141Z,15.20
2023-02-18T16:02:20.060Z,15.10
2023-02-18T16:04:53.215Z,15.10
2023-02-18T16:07:24.652Z,15.00
2023-02-18T16:10:08.543Z,15.00
2023-02-18T16:12:40.457Z,15.00
2023-02-18T16:15:12.802Z,14.90
2023-02-18T16:17:46.003Z,14.90
2023-02-18T16:20:24.536Z,14.90
2023-02-18T16:22:54.166Z,14.90
2023-02-18T16:25:37.195Z,14.90
2023-02-18T16:28:08.880Z,14.80
2023-02-18T16:30:37.453Z,14.80
2023-02-18T16:33:05.511Z,14.80
2023-02-18T16:35:48.696Z,14.80
2023-02-18T16:38:19.395Z,14.70
2023-02-18T16:40:49.469Z,14.70
2023-02-18T16:43:19.347Z,14.70
2023-02-18T16:45:49.951Z,14.70
2023-02-18T16:48:21.086Z,14.60
2023-02-18T16:50:51.629Z,14.60
2023-02-18T16:53:20.037Z,14.60
2023-02-18T16:55:51.232Z,14.60
2023-02-18T16:58:19.362Z,14.50
2023-02-18T17:00:51.954Z,14.50
2023-02-18T17:03:20.214Z,14.50
2023-02-18T17:05:48.242Z,14.50
2023-02-18T17:08:19.259Z,14.50
2023-02-18T17:10:49.995Z,14.40
2023-02-18T17:13:19.261Z,14.40
2023-02-18T17:15:48.860Z,14.40
2023-02-18T17:18:17.148Z,14.40
2023-02-18T17:20:45.568Z,14.40
2023-02-18T17:23:16.277Z,14.40
2023-02-18T17:25:45.560Z,14.40
2023-02-18T17:28:18.926Z,14.40
2023-02-18T17:30:49.139Z,14.40
2023-02-18T17:33:19.627Z,14.40
2023-02-18T17:35:47.654Z,14.30
2023-02-18T17:38:17.713Z,14.30
2023-02-18T17:40:45.710Z,14.30
2023-02-18T17:43:16.642Z,14.30
2023-02-18T17:45:49.778Z,14.30
2023-02-18T17:48:19.326Z,14.30
2023-02-18T17:50:47.269Z,14.30
2023-02-18T17:53:16.838Z,14.20
2023-02-18T17:55:46.244Z,14.20
2023-02-18T17:58:15.957Z,14.20
2023-02-18T18:00:45.855Z,14.20
2023-02-18T18:03:14.671Z,14.20
2023-02-18T18:05:44.641Z,14.20
2023-02-18T18:08:14.122Z,14.10
2023-02-18T18:10:45.994Z,14.10
2023-02-18T18:13:19.612Z,14.10
2023-02-18T18:15:47.587Z,14.10
2023-02-18T18:18:15.896Z,14.10
2023-02-18T18:20:46.468Z,14.00
2023-02-18T18:23:16.264Z,14.00
2023-02-18T18:25:45.677Z,14.00
2023-02-18T18:28:15.692Z,14.00
2023-02-18T18:30:48.518Z,14.00
2023-02-18T18:33:19.728Z,13.90
2023-02-18T18:35:49.901Z,13.90
2023-02-18T18:38:18.881Z,13.90
2023-02-18T18:40:48.050Z,13.80
2023-02-18T18:43:20.414Z,13.80
2023-02-18T18:45:49.366Z,13.80
2023-02-18T18:48:20.983Z,13.70
2023-02-18T18:50:49.560Z,13.70
2023-02-18T18:53:20.746Z,13.70
2023-02-18T18:55:49.611Z,13.70
2023-02-18T18:58:20.921Z,13.70
2023-02-18T19:00:51.672Z,13.70
2023-02-18T19:03:20.337Z,13.60
2023-02-18T19:05:48.893Z,13.60
2023-02-18T19:08:18.007Z,13.60
2023-02-18T19:10:48.330Z,13.60
2023-02-18T19:13:19.820Z,13.60
2023-02-18T19:15:48.121Z,13.50
2023-02-18T19:18:18.175Z,13.50
2023-02-18T19:20:47.390Z,13.50
2023-02-18T19:23:15.555Z,13.50
2023-02-18T19:25:44.474Z,13.40
2023-02-18T19:28:13.849Z,13.40
2023-02-18T19:30:43.622Z,13.40
2023-02-18T19:33:14.295Z,13.40
2023-02-18T19:35:43.684Z,13.30
2023-02-18T19:38:13.667Z,13.20
2023-02-18T19:40:42.424Z,13.30
2023-02-18T19:43:10.895Z,13.20
2023-02-18T19:45:43.851Z,13.20
2023-02-18T19:48:13.603Z,13.20
2023-02-18T19:50:42.668Z,13.10
2023-02-18T19:53:10.994Z,13.10
2023-02-18T19:55:39.276Z,13.00
2023-02-18T19:58:08.146Z,13.00
2023-02-18T20:00:36.768Z,13.00
2023-02-18T20:03:06.048Z,12.90
2023-02-18T20:05:37.930Z,12.90
2023-02-18T20:08:05.891Z,12.90
2023-02-18T20:10:34.097Z,12.80
2023-02-18T20:13:02.105Z,12.80
2023-02-18T20:15:30.076Z,12.80
2023-02-18T20:17:58.139Z,12.80
2023-02-18T20:20:28.635Z,12.70
2023-02-18T20:22:56.574Z,12.70
2023-02-18T20:25:24.531Z,12.70
2023-02-18T20:28:00.940Z,12.60
2023-02-18T20:30:30.067Z,12.60
2023-02-18T20:32:58.373Z,12.50
2023-02-18T20:35:28.009Z,12.50
2023-02-18T20:37:55.881Z,12.50
2023-02-18T20:40:24.120Z,12.40
2023-02-18T20:42:51.985Z,12.40
2023-02-18T20:45:20.094Z,12.40
2023-02-18T20:47:48.048Z,12.30
2023-02-18T20:50:16.184Z,12.30
2023-02-18T20:52:45.482Z,12.30
2023-02-18T20:55:13.361Z,12.30
2023-02-18T20:57:41.243Z,12.30
2023-02-18T21:00:10.250Z,12.20
2023-02-18T21:02:38.299Z,12.20
2023-02-18T21:05:06.945Z,12.10
2023-02-18T21:07:34.922Z,12.10
2023-02-18T21:10:05.126Z,12.20
2023-02-18T21:12:33.032Z,12.10
2023-02-18T21:15:00.973Z,12.10
2023-02-18T21:17:28.908Z,12.10
2023-02-18T21:19:56.806Z,12.10
2023-02-18T21:22:24.674Z,12.10
2023-02-18T21:24:52.624Z,12.10
2023-02-18T21:27:21.920Z,12.10
2023-02-18T21:29:49.951Z,12.00
2023-02-18T21:32:18.082Z,12.00
2023-02-18T21:34:46.011Z,12.00
2023-02-18T21:37:14.132Z,12.00
2023-02-18T21:39:42.046Z,12.00
2023-02-18T21:42:10.604Z,12.00
2023-02-18T21:44:42.665Z,12.00
2023-02-18T21:47:12.110Z,12.00
2023-02-18T21:49:40.051Z,12.00
2023-02-18T21:52:10.656Z,11.90
2023-02-18T21:54:40.618Z,11.90
2023-02-18T21:57:11.621Z,11.90
2023-02-18T21:59:41.858Z,11.90
2023-02-18T22:02:15.888Z,11.90
2023-02-18T22:04:43.785Z,11.80
2023-02-18T22:07:11.692Z,11.90
2023-02-18T22:09:39.966Z,11.80
2023-02-18T22:12:08.150Z,11.80
2023-02-18T22:14:36.185Z,11.80
2023-02-18T22:17:05.541Z,11.80
2023-02-18T22:19:33.799Z,11.90
2023-02-18T22:22:02.562Z,11.90
2023-02-18T22:24:30.854Z,11.80
2023-02-18T22:27:01.051Z,11.80
2023-02-18T22:29:30.353Z,11.80
2023-02-18T22:31:58.431Z,11.80
2023-02-18T22:34:28.028Z,11.80
2023-02-18T22:36:55.955Z,11.80
2023-02-18T22:39:24.292Z,11.80
2023-02-18T22:41:52.166Z,11.80
2023-02-18T22:44:20.653Z,11.80
2023-02-18T22:46:48.764Z,11.70
2023-02-18T22:49:17.003Z,11.70
2023-02-18T22:51:46.396Z,11.70
2023-02-18T22:54:16.461Z,11.80
2023-02-18T22:56:45.107Z,11.70
2023-02-18T22:59:14.012Z,11.70
2023-02-18T23:01:43.554Z,11.70
2023-02-18T23:04:13.318Z,11.70
2023-02-18T23:06:43.266Z,11.70
2023-02-18T23:09:16.262Z,11.70
2023-02-18T23:11:46.173Z,11.70
2023-02-18T23:14:20.121Z,11.70
2023-02-18T23:17:06.858Z,11.70
2023-02-18T23:19:36.762Z,11.70
2023-02-18T23:22:05.235Z,11.70
2023-02-18T23:24:35.809Z,11.70
2023-02-18T23:27:04.816Z,11.60
2023-02-18T23:29:33.022Z,11.60
2023-02-18T23:32:01.007Z,11.60
2023-02-18T23:34:29.516Z,11.60
2023-02-18T23:36:58.394Z,11.50
2023-02-18T23:39:26.733Z,11.50
2023-02-18T23:41:56.146Z,11.50
2023-02-18T23:44:25.673Z,11.50
2023-02-18T23:46:53.789Z,11.50
2023-02-18T23:49:23.184Z,11.50
2023-02-18T23:51:52.323Z,11.50
2023-02-18T23:54:20.896Z,11.50
2023-02-18T23:56:48.897Z,11.50
2023-02-18T23:59:18.238Z,11.50
